| time (UTC) | temp C | wind direction | speed KPH | gust KPH | rain 1hr cm | rain 24hr cm | rain mn cm | humidity % | barometer mb |
| 20260502152004 | 19 | 45 | 0.0 | 4.8 | 0.00 | 0.00 | 0.00 | 50 | 1022.9 |
| 20260502151510 | 19 | 311 | 1.6 | 4.8 | 0.00 | 0.00 | 0.00 | 55 | 1022.9 |
| 20260502151004 | 18 | 41 | 1.6 | 4.8 | 0.00 | 0.00 | 0.00 | 54 | 1022.9 |
| 20260502150504 | 18 | 172 | 1.6 | 4.8 | 0.00 | 0.00 | 0.00 | 55 | 1022.9 |
| 20260502130508 | 12 | 296 | 0.0 | 6.4 | 0.00 | 0.00 | 0.00 | 84 | 1022.2 |
| 20260502123508 | 11 | 317 | 1.6 | 6.4 | 0.00 | 0.00 | 0.00 | 86 | 1021.6 |
| 20260502123015 | 11 | 339 | 1.6 | 6.4 | 0.00 | 0.00 | 0.00 | 86 | 1021.4 |
| 20260502122507 | 11 | 301 | 0.0 | 3.2 | 0.00 | 0.00 | 0.00 | 86 | 1021.3 |
| 20260502122011 | 11 | 307 | 0.0 | 3.2 | 0.00 | 0.00 | 0.00 | 86 | 1021.2 |
| 20260502121533 | 11 | 318 | 0.0 | 3.2 | 0.00 | 0.00 | 0.00 | 87 | 1021.1 |
| 20260502121007 | 11 | 294 | 1.6 | 4.8 | 0.00 | 0.00 | 0.00 | 87 | 1021.0 |
| 20260502120507 | 11 | 305 | 0.0 | 4.8 | 0.00 | 0.00 | 0.00 | 87 | 1021.0 |
| 20260502115509 | 11 | 304 | 0.0 | 3.2 | 0.00 | 0.00 | 0.00 | 87 | 1020.8 |
| 20260502115008 | 11 | 299 | 0.0 | 3.2 | 0.00 | 0.00 | 0.00 | 87 | 1020.8 |
| 20260502114518 | 11 | 271 | 0.0 | 3.2 | 0.00 | 0.00 | 0.00 | 87 | 1020.8 |
| 20260502114007 | 11 | 322 | 0.0 | 3.2 | 0.00 | 0.00 | 0.00 | 87 | 1020.7 |
| 20260502113508 | 11 | 299 | 0.0 | 3.2 | 0.00 | 0.00 | 0.00 | 87 | 1020.6 |
| 20260502113015 | 11 | 305 | 0.0 | 3.2 | 0.00 | 0.00 | 0.00 | 86 | 1020.5 |
| 20260502112508 | 11 | 300 | 0.0 | 3.2 | 0.00 | 0.00 | 0.00 | 87 | 1020.3 |
| 20260502112008 | 11 | 263 | 0.0 | 0.0 | 0.00 | 0.00 | 0.00 | 86 | 1020.3 |
| 20260502111520 | 11 | 263 | 0.0 | 3.2 | 0.00 | 0.00 | 0.00 | 86 | 1020.2 |
| 20260502111007 | 11 | 301 | 0.0 | 3.2 | 0.00 | 0.00 | 0.00 | 86 | 1020.2 |
| 20260502110509 | 11 | 285 | 0.0 | 0.0 | 0.00 | 0.00 | 0.00 | 85 | 1020.1 |
| 20260502110026 | 11 | 300 | 0.0 | 0.0 | 0.00 | 0.00 | 0.00 | 85 | 1020.0 |
| 20260502105510 | 11 | 299 | 0.0 | 1.6 | 0.00 | 0.00 | 0.00 | 84 | 1020.0 |
| 20260502105011 | 11 | 273 | 0.0 | 3.2 | 0.00 | 0.00 | 0.00 | 83 | 1020.2 |
| 20260502104520 | 11 | 257 | 0.0 | 3.2 | 0.00 | 0.00 | 0.00 | 84 | 1020.2 |
| 20260502104008 | 11 | 246 | 0.0 | 4.8 | 0.00 | 0.00 | 0.00 | 83 | 1020.2 |
| 20260502103507 | 11 | 281 | 0.0 | 4.8 | 0.00 | 0.00 | 0.00 | 83 | 1020.1 |
| 20260502103022 | 11 | 308 | 0.0 | 3.2 | 0.00 | 0.00 | 0.00 | 83 | 1020.1 |
| 20260502102507 | 11 | 309 | 0.0 | 1.6 | 0.00 | 0.00 | 0.00 | 82 | 1019.9 |
| 20260502102007 | 11 | 313 | 0.0 | 0.0 | 0.00 | 0.00 | 0.00 | 81 | 1020.0 |
| 20260502101517 | 11 | 311 | 0.0 | 0.0 | 0.00 | 0.00 | 0.00 | 81 | 1020.1 |
| 20260502101008 | 11 | 323 | 0.0 | 0.0 | 0.00 | 0.00 | 0.00 | 81 | 1019.9 |
| 20260502100509 | 11 | 302 | 0.0 | 3.2 | 0.00 | 0.00 | 0.00 | 82 | 1019.8 |
| 20260502091513 | 11 | 320 | 0.0 | 4.8 | 0.00 | 0.00 | 0.00 | 81 | 1019.7 |
| 20260502091006 | 11 | 317 | 1.6 | 4.8 | 0.00 | 0.00 | 0.00 | 81 | 1019.7 |
| 20260502090507 | 11 | 290 | 0.0 | 3.2 | 0.00 | 0.00 | 0.00 | 81 | 1019.6 |
| 20260502071509 | 10 | 34 | 0.0 | 0.0 | 0.00 | 0.00 | 0.00 | 86 | 1019.8 |
| 20260502071006 | 10 | 34 | 0.0 | 0.0 | 0.00 | 0.00 | 0.00 | 86 | 1019.8 |
| 20260502070508 | 11 | 34 | 0.0 | 0.0 | 0.00 | 0.00 | 0.00 | 86 | 1019.8 |
| 20260502070021 | 11 | 34 | 0.0 | 0.0 | 0.00 | 0.00 | 0.00 | 86 | 1019.8 |
| 20260502065510 | 11 | 34 | 0.0 | 0.0 | 0.00 | 0.00 | 0.00 | 86 | 1019.9 |
| 20260502065011 | 11 | 34 | 0.0 | 0.0 | 0.00 | 0.00 | 0.00 | 86 | 1019.9 |
| 20260502064521 | 11 | 34 | 0.0 | 0.0 | 0.00 | 0.00 | 0.00 | 86 | 1019.9 |
| 20260502064009 | 11 | 34 | 0.0 | 0.0 | 0.00 | 0.00 | 0.00 | 85 | 1020.0 |
| 20260502063504 | 11 | 34 | 0.0 | 0.0 | 0.00 | 0.00 | 0.00 | 85 | 1020.0 |
| 20260502063006 | 11 | 34 | 0.0 | 0.0 | 0.00 | 0.00 | 0.00 | 85 | 1019.9 |
| 20260502062504 | 11 | 34 | 0.0 | 0.0 | 0.00 | 0.00 | 0.00 | 85 | 1019.9 |
| 20260502062004 | 11 | 34 | 0.0 | 0.0 | 0.00 | 0.00 | 0.00 | 85 | 1019.9 |
| 20260502061507 | 11 | 34 | 0.0 | 0.0 | 0.00 | 0.00 | 0.00 | 85 | 1019.9 |
| 20260502061004 | 11 | 34 | 0.0 | 0.0 | 0.00 | 0.00 | 0.00 | 85 | 1019.9 |
| 20260502060507 | 11 | 34 | 0.0 | 0.0 | 0.00 | 0.00 | 0.00 | 85 | 1019.8 |
| 20260502060017 | 11 | 34 | 0.0 | 0.0 | 0.00 | 0.00 | 0.00 | 85 | 1019.8 |
| 20260502055507 | 11 | 34 | 0.0 | 0.0 | 0.00 | 0.00 | 0.00 | 84 | 1019.8 |
| 20260502055008 | 11 | 34 | 0.0 | 0.0 | 0.00 | 0.00 | 0.00 | 84 | 1019.8 |
| 20260502054525 | 11 | 34 | 0.0 | 0.0 | 0.00 | 0.00 | 0.00 | 84 | 1019.8 |
| 20260502054008 | 11 | 34 | 0.0 | 0.0 | 0.00 | 0.00 | 0.00 | 84 | 1019.9 |
| 20260502053508 | 11 | 34 | 0.0 | 0.0 | 0.00 | 0.00 | 0.00 | 84 | 1020.0 |
| 20260502053026 | 11 | 34 | 0.0 | 0.0 | 0.00 | 0.00 | 0.00 | 84 | 1020.0 |
| 20260502052510 | 11 | 34 | 0.0 | 0.0 | 0.00 | 0.00 | 0.00 | 83 | 1020.0 |
| 20260502052003 | 12 | 34 | 0.0 | 0.0 | 0.00 | 0.00 | 0.00 | 83 | 1020.0 |
| 20260502051504 | 12 | 34 | 0.0 | 0.0 | 0.00 | 0.00 | 0.00 | 83 | 1019.9 |
| 20260502051003 | 12 | 34 | 0.0 | 0.0 | 0.00 | 0.00 | 0.00 | 83 | 1019.9 |
| 20260502050508 | 12 | 34 | 0.0 | 0.0 | 0.00 | 0.00 | 0.00 | 83 | 1020.0 |
| 20260502050011 | 12 | 34 | 0.0 | 0.0 | 0.00 | 0.00 | 0.00 | 82 | 1019.9 |
| 20260502045507 | 12 | 34 | 0.0 | 0.0 | 0.00 | 0.00 | 0.00 | 82 | 1019.8 |
| 20260502045007 | 12 | 34 | 0.0 | 0.0 | 0.00 | 0.00 | 0.00 | 81 | 1019.9 |
| 20260502044515 | 12 | 34 | 0.0 | 0.0 | 0.00 | 0.00 | 0.00 | 81 | 1019.8 |
| 20260502044007 | 12 | 34 | 0.0 | 0.0 | 0.00 | 0.00 | 0.00 | 81 | 1019.8 |
| 20260502043508 | 12 | 34 | 0.0 | 0.0 | 0.00 | 0.00 | 0.00 | 80 | 1019.7 |
| 20260502043020 | 12 | 34 | 0.0 | 0.0 | 0.00 | 0.00 | 0.00 | 80 | 1019.7 |
| 20260502042508 | 13 | 34 | 0.0 | 0.0 | 0.00 | 0.00 | 0.00 | 79 | 1019.9 |
| 20260502042009 | 13 | 34 | 0.0 | 0.0 | 0.00 | 0.00 | 0.00 | 79 | 1020.0 |
| 20260502041524 | 13 | 74 | 0.0 | 0.0 | 0.00 | 0.00 | 0.00 | 79 | 1019.6 |
| 20260502041009 | 13 | 74 | 0.0 | 0.0 | 0.00 | 0.00 | 0.00 | 78 | 1019.5 |
| 20260502040504 | 13 | 74 | 0.0 | 0.0 | 0.00 | 0.00 | 0.00 | 78 | 1019.5 |
| 20260502040010 | 13 | 74 | 0.0 | 0.0 | 0.00 | 0.00 | 0.00 | 77 | 1019.5 |
| 20260502035503 | 13 | 74 | 0.0 | 0.0 | 0.00 | 0.00 | 0.00 | 77 | 1019.4 |
| 20260502035003 | 14 | 74 | 0.0 | 0.0 | 0.00 | 0.00 | 0.00 | 76 | 1019.5 |
| 20260502034511 | 14 | 74 | 0.0 | 0.0 | 0.00 | 0.00 | 0.00 | 76 | 1019.7 |
| 20260502034007 | 14 | 74 | 0.0 | 0.0 | 0.00 | 0.00 | 0.00 | 76 | 1019.7 |
| 20260502033509 | 14 | 74 | 0.0 | 0.0 | 0.00 | 0.00 | 0.00 | 76 | 1019.7 |
| 20260502033016 | 14 | 74 | 0.0 | 0.0 | 0.00 | 0.00 | 0.00 | 76 | 1019.6 |
| 20260502032507 | 14 | 74 | 0.0 | 0.0 | 0.00 | 0.00 | 0.00 | 75 | 1019.6 |
| 20260502032009 | 14 | 74 | 0.0 | 0.0 | 0.00 | 0.00 | 0.00 | 74 | 1019.5 |
| 20260502031523 | 15 | 74 | 0.0 | 0.0 | 0.00 | 0.00 | 0.00 | 72 | 1019.3 |
| 20260502031008 | 15 | 82 | 0.0 | 0.0 | 0.00 | 0.00 | 0.00 | 72 | 1019.3 |
| 20260502030510 | 15 | 82 | 0.0 | 0.0 | 0.00 | 0.00 | 0.00 | 72 | 1019.2 |
| 20260502030024 | 15 | 82 | 0.0 | 0.0 | 0.00 | 0.00 | 0.00 | 72 | 1019.2 |
| 20260502025510 | 15 | 82 | 0.0 | 0.0 | 0.00 | 0.00 | 0.00 | 73 | 1019.2 |
| 20260502025003 | 15 | 82 | 0.0 | 0.0 | 0.00 | 0.00 | 0.00 | 73 | 1019.2 |
| 20260502024512 | 15 | 82 | 0.0 | 0.0 | 0.00 | 0.00 | 0.00 | 72 | 1019.2 |
| 20260502024010 | 15 | 82 | 0.0 | 0.0 | 0.00 | 0.00 | 0.00 | 72 | 1019.2 |
| 20260502023506 | 15 | 82 | 0.0 | 0.0 | 0.00 | 0.00 | 0.00 | 72 | 1019.1 |
| 20260502023016 | 15 | 82 | 0.0 | 0.0 | 0.00 | 0.00 | 0.00 | 71 | 1019.1 |
| 20260502022508 | 15 | 71 | 0.0 | 1.6 | 0.00 | 0.00 | 0.00 | 71 | 1019.0 |
| 20260502022010 | 15 | 44 | 0.0 | 3.2 | 0.00 | 0.00 | 0.00 | 71 | 1019.1 |
| 20260502021520 | 15 | 44 | 0.0 | 3.2 | 0.00 | 0.00 | 0.00 | 71 | 1018.9 |
| 20260502021013 | 15 | 69 | 0.0 | 0.0 | 0.00 | 0.00 | 0.00 | 70 | 1018.8 |
| 20260502020512 | 15 | 64 | 0.0 | 1.6 | 0.00 | 0.00 | 0.00 | 70 | 1018.7 |
| 20260502020024 | 15 | 64 | 0.0 | 3.2 | 0.00 | 0.00 | 0.00 | 69 | 1018.6 |
| 20260502015512 | 15 | 58 | 0.0 | 1.6 | 0.00 | 0.00 | 0.00 | 69 | 1018.6 |
| 20260502015010 | 15 | 85 | 0.0 | 0.0 | 0.00 | 0.00 | 0.00 | 70 | 1018.5 |
| 20260502014529 | 15 | 71 | 0.0 | 1.6 | 0.00 | 0.00 | 0.00 | 70 | 1018.2 |
| 20260502014007 | 15 | 112 | 0.0 | 1.6 | 0.00 | 0.00 | 0.00 | 70 | 1018.2 |
| 20260502013507 | 15 | 103 | 0.0 | 0.0 | 0.00 | 0.00 | 0.00 | 69 | 1018.2 |
| 20260502013014 | 15 | 107 | 0.0 | 0.0 | 0.00 | 0.00 | 0.00 | 69 | 1018.1 |
| 20260502012507 | 15 | 137 | 0.0 | 3.2 | 0.00 | 0.00 | 0.00 | 70 | 1017.9 |
| 20260502012011 | 15 | 140 | 0.0 | 3.2 | 0.00 | 0.00 | 0.00 | 70 | 1017.7 |
| 20260502011518 | 15 | 123 | 0.0 | 3.2 | 0.00 | 0.00 | 0.00 | 69 | 1017.7 |
| 20260502011009 | 16 | 189 | 0.0 | 3.2 | 0.00 | 0.00 | 0.00 | 68 | 1017.6 |
| 20260502010508 | 16 | 209 | 0.0 | 3.2 | 0.00 | 0.00 | 0.00 | 69 | 1017.6 |
| 20260502010022 | 16 | 107 | 0.0 | 3.2 | 0.00 | 0.00 | 0.00 | 69 | 1017.6 |
| 20260502005509 | 16 | 134 | 0.0 | 3.2 | 0.00 | 0.00 | 0.00 | 69 | 1017.5 |
| 20260502005010 | 16 | 104 | 0.0 | 3.2 | 0.00 | 0.00 | 0.00 | 68 | 1017.4 |
| 20260502004541 | 16 | 118 | 0.0 | 0.0 | 0.00 | 0.00 | 0.00 | 67 | 1017.4 |
| 20260502004009 | 16 | 79 | 0.0 | 3.2 | 0.00 | 0.00 | 0.00 | 68 | 1017.3 |
| 20260502003508 | 16 | 74 | 0.0 | 3.2 | 0.00 | 0.00 | 0.00 | 67 | 1017.2 |
| 20260502003026 | 16 | 71 | 0.0 | 3.2 | 0.00 | 0.00 | 0.00 | 67 | 1017.2 |
| 20260502002507 | 16 | 76 | 0.0 | 3.2 | 0.00 | 0.00 | 0.00 | 67 | 1017.2 |
| 20260502002007 | 16 | 123 | 1.6 | 3.2 | 0.00 | 0.00 | 0.00 | 67 | 1017.3 |
| 20260502001516 | 16 | 147 | 0.0 | 3.2 | 0.00 | 0.00 | 0.00 | 66 | 1017.3 |
| 20260502001008 | 16 | 111 | 0.0 | 3.2 | 0.00 | 0.00 | 0.00 | 66 | 1017.3 |
| 20260502000510 | 16 | 215 | 0.0 | 3.2 | 0.00 | 0.00 | 0.00 | 65 | 1017.2 |
| 20260502000019 | 16 | 133 | 0.0 | 3.2 | 0.00 | 0.00 | 0.00 | 66 | 1017.1 |
| 20260501235510 | 16 | 100 | 0.0 | 3.2 | 0.00 | 0.00 | 0.00 | 66 | 1016.9 |
| 20260501235007 | 16 | 146 | 0.0 | 4.8 | 0.00 | 0.00 | 0.00 | 65 | 1016.7 |
| 20260501234529 | 17 | 120 | 0.0 | 4.8 | 0.00 | 0.00 | 0.00 | 65 | 1016.6 |
| 20260501234004 | 17 | 124 | 1.6 | 4.8 | 0.00 | 0.00 | 0.00 | 64 | 1016.6 |
| 20260501233505 | 17 | 111 | 0.0 | 3.2 | 0.00 | 0.00 | 0.00 | 64 | 1016.5 |
| 20260501233011 | 17 | 96 | 1.6 | 3.2 | 0.00 | 0.00 | 0.00 | 64 | 1016.5 |
| 20260501232504 | 17 | 121 | 0.0 | 3.2 | 0.00 | 0.00 | 0.00 | 63 | 1016.6 |
| 20260501232008 | 17 | 139 | 0.0 | 3.2 | 0.00 | 0.00 | 0.00 | 63 | 1016.6 |
| 20260501231517 | 17 | 63 | 1.6 | 6.4 | 0.00 | 0.00 | 0.00 | 62 | 1016.6 |
| 20260501231007 | 17 | 167 | 1.6 | 8.0 | 0.00 | 0.00 | 0.00 | 62 | 1016.4 |
| 20260501230508 | 17 | 90 | 1.6 | 8.0 | 0.00 | 0.00 | 0.00 | 62 | 1016.1 |
| 20260501230020 | 17 | 62 | 0.0 | 4.8 | 0.00 | 0.00 | 0.00 | 61 | 1016.0 |
| 20260501225508 | 17 | 134 | 1.6 | 4.8 | 0.00 | 0.00 | 0.00 | 61 | 1016.0 |
| 20260501225010 | 17 | 145 | 1.6 | 4.8 | 0.00 | 0.00 | 0.00 | 61 | 1016.1 |
| 20260501224524 | 17 | 67 | 1.6 | 4.8 | 0.00 | 0.00 | 0.00 | 60 | 1016.2 |
| 20260501224010 | 17 | 108 | 1.6 | 8.0 | 0.00 | 0.00 | 0.00 | 60 | 1016.2 |
| 20260501223508 | 17 | 67 | 1.6 | 8.0 | 0.00 | 0.00 | 0.00 | 60 | 1016.3 |
| 20260501223027 | 17 | 61 | 1.6 | 4.8 | 0.00 | 0.00 | 0.00 | 62 | 1016.2 |
| 20260501222505 | 17 | 65 | 0.0 | 4.8 | 0.00 | 0.00 | 0.00 | 61 | 1016.1 |
| 20260501222005 | 17 | 107 | 1.6 | 4.8 | 0.00 | 0.00 | 0.00 | 62 | 1016.3 |
| 20260501221510 | 17 | 35 | 1.6 | 4.8 | 0.00 | 0.00 | 0.00 | 61 | 1016.3 |
| 20260501221005 | 17 | 138 | 0.0 | 6.4 | 0.00 | 0.00 | 0.00 | 62 | 1016.2 |
| 20260501220507 | 17 | 121 | 3.2 | 6.4 | 0.00 | 0.00 | 0.00 | 61 | 1016.2 |
| 20260501220017 | 17 | 181 | 1.6 | 6.4 | 0.00 | 0.00 | 0.00 | 60 | 1016.2 |
| 20260501215508 | 17 | 135 | 1.6 | 8.0 | 0.00 | 0.00 | 0.00 | 59 | 1016.0 |
| 20260501215009 | 17 | 150 | 1.6 | 9.7 | 0.00 | 0.00 | 0.00 | 59 | 1016.1 |
| 20260501214523 | 17 | 116 | 1.6 | 9.7 | 0.00 | 0.00 | 0.00 | 59 | 1016.1 |
| 20260501214012 | 17 | 67 | 1.6 | 6.4 | 0.00 | 0.00 | 0.00 | 60 | 1016.2 |
| 20260501213511 | 17 | 51 | 0.0 | 4.8 | 0.00 | 0.00 | 0.00 | 58 | 1016.3 |
| 20260501213023 | 17 | 49 | 3.2 | 4.8 | 0.00 | 0.00 | 0.00 | 59 | 1016.3 |
| 20260501212510 | 17 | 205 | 1.6 | 4.8 | 0.00 | 0.00 | 0.00 | 59 | 1016.2 |
| 20260501212009 | 17 | 83 | 1.6 | 6.4 | 0.00 | 0.00 | 0.00 | 58 | 1016.3 |
| 20260501211529 | 17 | 65 | 1.6 | 12.9 | 0.00 | 0.00 | 0.00 | 57 | 1016.1 |
| 20260501211005 | 17 | 138 | 3.2 | 12.9 | 0.00 | 0.00 | 0.00 | 57 | 1016.2 |
| 20260501210505 | 17 | 128 | 1.6 | 6.4 | 0.00 | 0.00 | 0.00 | 58 | 1016.2 |
| 20260501210015 | 17 | 92 | 1.6 | 9.7 | 0.00 | 0.00 | 0.00 | 57 | 1016.3 |
| 20260501205507 | 17 | 348 | 3.2 | 9.7 | 0.00 | 0.00 | 0.00 | 56 | 1016.1 |
| 20260501205007 | 17 | 109 | 3.2 | 9.7 | 0.00 | 0.00 | 0.00 | 57 | 1016.6 |
| 20260501204520 | 17 | 50 | 1.6 | 9.7 | 0.00 | 0.00 | 0.00 | 57 | 1016.7 |
| 20260501204008 | 17 | 113 | 3.2 | 11.3 | 0.00 | 0.00 | 0.00 | 55 | 1016.8 |
| 20260501203508 | 17 | 360 | 1.6 | 11.3 | 0.00 | 0.00 | 0.00 | 55 | 1016.8 |
| 20260501203024 | 17 | 58 | 3.2 | 11.3 | 0.00 | 0.00 | 0.00 | 54 | 1016.8 |
| 20260501202509 | 17 | 55 | 4.8 | 11.3 | 0.00 | 0.00 | 0.00 | 53 | 1016.7 |
| 20260501202012 | 17 | 71 | 3.2 | 11.3 | 0.00 | 0.00 | 0.00 | 54 | 1016.9 |
| 20260501201524 | 17 | 93 | 3.2 | 12.9 | 0.00 | 0.00 | 0.00 | 54 | 1016.9 |
| 20260501201008 | 17 | 154 | 3.2 | 12.9 | 0.00 | 0.00 | 0.00 | 54 | 1017.3 |
| 20260501200510 | 17 | 173 | 4.8 | 16.1 | 0.00 | 0.00 | 0.00 | 53 | 1017.1 |
| 20260501200026 | 17 | 79 | 6.4 | 16.1 | 0.00 | 0.00 | 0.00 | 53 | 1017.1 |
| 20260501195505 | 17 | 123 | 4.8 | 11.3 | 0.00 | 0.00 | 0.00 | 52 | 1017.1 |
| 20260501195006 | 17 | 61 | 3.2 | 11.3 | 0.00 | 0.00 | 0.00 | 54 | 1016.7 |
| 20260501194516 | 17 | 125 | 3.2 | 11.3 | 0.00 | 0.00 | 0.00 | 55 | 1016.6 |
| 20260501194008 | 17 | 156 | 3.2 | 9.7 | 0.00 | 0.00 | 0.00 | 58 | 1016.3 |
| 20260501193509 | 17 | 71 | 1.6 | 8.0 | 0.00 | 0.00 | 0.00 | 57 | 1016.0 |
| 20260501193027 | 17 | 300 | 3.2 | 8.0 | 0.00 | 0.00 | 0.00 | 55 | 1016.3 |
| 20260501192508 | 17 | 94 | 3.2 | 6.4 | 0.00 | 0.00 | 0.00 | 56 | 1016.5 |
| 20260501192007 | 17 | 207 | 1.6 | 11.3 | 0.00 | 0.00 | 0.00 | 56 | 1016.5 |
| 20260501191526 | 17 | 281 | 3.2 | 11.3 | 0.00 | 0.00 | 0.00 | 54 | 1016.6 |
| 20260501191011 | 17 | 207 | 3.2 | 14.5 | 0.00 | 0.00 | 0.00 | 54 | 1016.3 |
| 20260501190510 | 17 | 69 | 4.8 | 14.5 | 0.00 | 0.00 | 0.00 | 53 | 1016.2 |
| 20260501190028 | 17 | 118 | 4.8 | 12.9 | 0.00 | 0.00 | 0.00 | 54 | 1016.5 |
| 20260501185511 | 17 | 63 | 3.2 | 12.9 | 0.00 | 0.00 | 0.00 | 52 | 1016.6 |
| 20260501185012 | 18 | 159 | 6.4 | 12.9 | 0.00 | 0.00 | 0.00 | 56 | 1016.4 |
| 20260501184514 | 17 | 123 | 3.2 | 11.3 | 0.00 | 0.00 | 0.00 | 54 | 1016.3 |
| 20260501184010 | 18 | 108 | 3.2 | 11.3 | 0.00 | 0.00 | 0.00 | 54 | 1016.4 |
| 20260501183511 | 18 | 345 | 3.2 | 12.9 | 0.00 | 0.00 | 0.00 | 55 | 1016.4 |
| 20260501183022 | 18 | 65 | 4.8 | 14.5 | 0.00 | 0.00 | 0.00 | 55 | 1016.6 |
| 20260501182507 | 18 | 126 | 3.2 | 14.5 | 0.00 | 0.00 | 0.00 | 56 | 1016.6 |
| 20260501182016 | 18 | 127 | 4.8 | 17.7 | 0.00 | 0.00 | 0.00 | 54 | 1016.8 |
| 20260501181523 | 19 | 120 | 4.8 | 17.7 | 0.00 | 0.00 | 0.00 | 56 | 1017.0 |
| 20260501181008 | 20 | 80 | 6.4 | 17.7 | 0.00 | 0.00 | 0.00 | 57 | 1017.1 |
| 20260501180508 | 19 | 58 | 4.8 | 16.1 | 0.00 | 0.00 | 0.00 | 55 | 1017.2 |
| 20260501180035 | 19 | 185 | 6.4 | 16.1 | 0.00 | 0.00 | 0.00 | 58 | 1017.2 |
| 20260501175509 | 18 | 231 | 3.2 | 11.3 | 0.00 | 0.00 | 0.00 | 59 | 1017.3 |
| 20260501175012 | 18 | 110 | 3.2 | 12.9 | 0.00 | 0.00 | 0.00 | 56 | 1017.3 |
| 20260501174527 | 18 | 187 | 1.6 | 14.5 | 0.00 | 0.00 | 0.00 | 57 | 1017.4 |
| 20260501174007 | 17 | 156 | 4.8 | 14.5 | 0.00 | 0.00 | 0.00 | 55 | 1017.5 |
| 20260501173509 | 17 | 92 | 4.8 | 12.9 | 0.00 | 0.00 | 0.00 | 56 | 1017.4 |
| 20260501173017 | 18 | 82 | 3.2 | 11.3 | 0.00 | 0.00 | 0.00 | 58 | 1017.3 |
| 20260501172508 | 18 | 120 | 4.8 | 11.3 | 0.00 | 0.00 | 0.00 | 57 | 1017.6 |
| 20260501172010 | 17 | 146 | 4.8 | 11.3 | 0.00 | 0.03 | 0.00 | 57 | 1017.6 |
| 20260501171521 | 17 | 64 | 3.2 | 11.3 | 0.00 | 0.03 | 0.00 | 58 | 1017.8 |
| 20260501171009 | 17 | 97 | 3.2 | 14.5 | 0.00 | 0.05 | 0.00 | 60 | 1017.8 |
| 20260501170511 | 17 | 61 | 6.4 | 14.5 | 0.00 | 0.05 | 0.00 | 60 | 1018.0 |
| 20260501170025 | 17 | 140 | 3.2 | 14.5 | 0.00 | 0.08 | 0.00 | 62 | 1017.9 |
| 20260501165513 | 17 | 165 | 6.4 | 14.5 | 0.00 | 0.08 | 0.00 | 60 | 1017.9 |
| 20260501165009 | 16 | 41 | 4.8 | 12.9 | 0.00 | 0.08 | 0.00 | 62 | 1017.8 |
| 20260501164541 | 16 | 46 | 4.8 | 12.9 | 0.00 | 0.08 | 0.00 | 64 | 1017.8 |
| 20260501164009 | 16 | 44 | 4.8 | 11.3 | 0.00 | 0.08 | 0.00 | 63 | 1017.9 |
| 20260501163510 | 16 | 194 | 3.2 | 12.9 | 0.00 | 0.08 | 0.00 | 63 | 1018.0 |
| 20260501163016 | 16 | 126 | 4.8 | 12.9 | 0.00 | 0.08 | 0.00 | 63 | 1017.8 |
| 20260501162507 | 16 | 224 | 3.2 | 12.9 | 0.00 | 0.08 | 0.00 | 65 | 1018.1 |
| 20260501162007 | 15 | 117 | 3.2 | 12.9 | 0.00 | 0.08 | 0.00 | 63 | 1018.0 |
| 20260501161522 | 15 | 62 | 3.2 | 8.0 | 0.00 | 0.08 | 0.00 | 63 | 1018.1 |
| 20260501161007 | 15 | 60 | 3.2 | 9.7 | 0.00 | 0.08 | 0.00 | 65 | 1018.0 |
| 20260501160508 | 15 | 163 | 1.6 | 9.7 | 0.00 | 0.08 | 0.00 | 65 | 1017.9 |
| 20260501160005 | 15 | 46 | 3.2 | 11.3 | 0.00 | 0.08 | 0.00 | 64 | 1017.9 |
| 20260501155506 | 15 | 24 | 3.2 | 11.3 | 0.00 | 0.08 | 0.00 | 64 | 1017.9 |
| 20260501155004 | 15 | 71 | 3.2 | 9.7 | 0.00 | 0.10 | 0.00 | 66 | 1018.0 |
| 20260501154509 | 14 | 108 | 1.6 | 9.7 | 0.00 | 0.10 | 0.00 | 66 | 1017.9 |
| 20260501154005 | 14 | 93 | 3.2 | 9.7 | 0.00 | 0.10 | 0.00 | 67 | 1017.9 |
| 20260501153506 | 14 | 60 | 1.6 | 12.9 | 0.00 | 0.10 | 0.00 | 67 | 1018.2 |
| 20260501153025 | 14 | 95 | 3.2 | 12.9 | 0.00 | 0.10 | 0.00 | 67 | 1018.4 |
| 20260501152505 | 14 | 123 | 0.0 | 9.7 | 0.00 | 0.10 | 0.00 | 69 | 1018.3 |